Hovedside
METAR-TAF:

METAR-TAF

Lufthavner :

Narvik, Norge

Narvik lufthavn

breddegrad: 68-28N, lengdegrad: 017-30E, høyde over havet: 17 m

Gjeldene værobservasjon

Denne rapporten ble laget for 52 minutter siden, klokken 19:50 UTC
Vind 19 kt fra Vest
Temperatur 2°C
Luftfuktighet 80%
Trykk 1008 hPa
Sikt 10 km eller mer
Få skyer i en høyde av 500 ft
Spredte skyer i en høyde av 1500 ft
Brutte skyer i en høyde av 4000 ft
regnbyger i nærheten

METAR: ENNK 261950Z 27019KT 9999 VCSH FEW005 SCT015 BKN040 02/M01 Q1008

Tid: 22:42 (20:42 UTC)


TAF: fraværende

Værobservasjoner og værvarsel for over 4000 flyplasser (METAR- og TAF-rapporter).

Tilgjengelige stasjoner er representert av de røde og gule prikkene på kartet.

Hold musepekeren over prikken for å se navnet på stasjonen.

Klikk så for å se værobservasjoner og -varsler.

For å forandre kartet kan du klikke på den grønne knappen med svart kryss for å zoome inn, på den grønne knappen med strek for å zoome ut, eller på de grønne pilene for å se tilstøtende kart.


METAR-TAF: